Flight Track Log - Related Links

Times and Time Zones

All times are in EDT time to prevent confusion due to time zone crossing. See the N207HP flight status page for this flight to view local times or setup timezone preferences in your user account.

Time Position Orientation Groundspeed Altitude Reporting Facility
EDT Latitude Longitude Course Direction KTS MPH feet Rate Location/Type
Mon 09:59:00 AM 32.3296 -85.8753 180° South  Level Estimated
Mon 09:59:41 AM 32.1789 -85.8969 180° South 95 109 4,500  Level Jacksonville Center
Mon 10:00:00 AM 32.2925 -85.8751 180° South  Level Estimated
Mon 10:00:54 AM 32.1456 -85.8958 178° South 98 113 4,500  Level Jacksonville Center
Mon 10:01:00 AM 32.2555 -85.8749 180° South  Level Estimated
Mon 10:01:55 AM 32.1164 -85.8972 182° South 102 117 4,500  Level Jacksonville Center
Mon 10:02:00 AM 32.2184 -85.8747 180° South  Level Estimated
Mon 10:02:50 AM 32.0892 -85.8939 174° South 101 116 4,500  Level Jacksonville Center
Mon 10:03:00 AM 32.1813 -85.8745 180° South  Level Estimated
Mon 10:03:51 AM 32.0600 -85.8956 183° South 102 117 4,500  Level Jacksonville Center
Mon 10:04:00 AM 32.1442 -85.8743 180° South  Level Estimated
Mon 10:04:58 AM 32.0328 -85.8922 174° South 100 115 4,400  Level Jacksonville Center
Mon 10:05:53 AM 32.0039 -85.8886 174° South 101 116 4,300 -52 Descending Jacksonville Center
Mon 10:06:54 AM 31.9744 -85.8903 183° South 99 114 4,300  Level Jacksonville Center
Mon 10:07:55 AM 31.9475 -85.8869 174° South 99 114 4,300  Level Jacksonville Center
Mon 10:08:49 AM 31.9225 -85.8861 178° South 100 115 4,300  Level Jacksonville Center
Mon 10:09:50 AM 31.8953 -85.8875 182° South 99 114 4,300 52 Level Jacksonville Center
Mon 10:10:45 AM 31.8703 -85.8867 178° South 99 114 4,400 52 Climbing Jacksonville Center
Mon 10:11:46 AM 31.8411 -85.8858 179° South 101 116 4,400  Level Jacksonville Center
Mon 10:12:47 AM 31.8117 -85.8872 182° South 100 115 4,400  Level Jacksonville Center
Mon 10:13:47 AM 31.7825 -85.8839 174° South 99 114 4,400  Level Jacksonville Center
Mon 10:14:48 AM 31.7553 -85.8856 183° South 101 116 4,400  Level Jacksonville Center
Mon 10:15:49 AM 31.7264 -85.8822 174° South 103 119 4,400  Level Jacksonville Center
Mon 10:16:50 AM 31.6992 -85.8836 182° South 104 120 4,400  Level Jacksonville Center
Mon 10:17:51 AM 31.6678 -85.8853 183° South 102 117 4,400  Level Jacksonville Center
Mon 10:18:52 AM 31.6386 -85.8842 178° South 101 116 4,400  Level Jacksonville Center
Mon 10:19:52 AM 31.6114 -85.8858 183° South 102 117 4,400  Level Jacksonville Center
Mon 10:20:53 AM 31.5819 -85.8922 190° South 106 122 4,400 47 Level Jacksonville Center
Mon 10:22:00 AM 31.5486 -85.8911 178° South 103 119 4,500 47 Climbing Jacksonville Center
Mon 10:23:01 AM 31.5214 -85.8925 182° South 104 120 4,500  Level Jacksonville Center
Mon 10:23:56 AM 31.4942 -85.8917 179° South 102 117 4,500  Level Jacksonville Center
Mon 10:24:57 AM 31.4650 -85.8908 179° South 105 121 4,500 -148 Level Jacksonville Center
Mon 10:25:58 AM 31.4336 -85.9019 197° South 119 137 4,200 -496 Descending Jacksonville Center
Mon 10:26:58 AM 31.4306 -85.9408 265° West 135 155 3,500 -1,091 Descending Jacksonville Center
Mon 10:27:59 AM 31.4475 -85.9292 30° Northeast 131 151 2,000 -885 Descending Jacksonville Center
Mon 10:29:00 AM 31.4242 -85.9456 211° Southwest 105 121 1,700 -155 Descending Jacksonville Center
Mon 10:29:55 AM 31.3992 -85.9422 174° South 98 113 1,700  Level Jacksonville Center
Mon 10:31:02 AM 31.3681 -85.9364 171° South 101 116 1,700  Level Jacksonville Center
Mon 10:31:56 AM 31.3431 -85.9331 174° South 106 122 1,700  Level Jacksonville Center
Mon 10:32:57 AM 31.3117 -85.9297 175° South 114 131 1,700  Level Jacksonville Center
Mon 10:33:58 AM 31.2828 -85.9239 170° South 105 121 1,700  Level Jacksonville Center
Mon 10:35:05 AM 31.2536 -85.9206 174° South 98 113 1,700 -47 Level Jacksonville Center
Mon 10:36:06 AM 31.2244 -85.9147 170° South 101 116 1,600 -49 Descending Jacksonville Center
Mon 10:37:07 AM 31.1953 -85.9114 174° South 104 120 1,600  Level Jacksonville Center

Login

Don't have an account? Register now (free) for customized features, flight alerts, and more!